Saturday, January 20, 2018, 10:12 AM EST
Back to Local

KHGR, Hagerstown Regional Airport

Location: Hagerstown, MD, United States Lat: 39.7
Local Time: 10:12 AM EST (15:12 GMT) Lon: -77.733
Time Zone: US/Eastern Elev: 705 ft

Show me the last for .
Show Coded

Time T Td Feel RH Dir Speed Gust Alt SLP Vis Weather Sky Remarks
2018-01-20 09:53 48 32 43 53 260° 12 - 29.99 30.03 10 CLR None
2018-01-20 08:53 48 31 41 51 260° 13 18 29.98 30.02 10 CLR None
2018-01-20 07:53 39 23 33 52 200° 8 - 29.98 30.02 10 CLR None
2018-01-20 06:53 35 18 28 49 170° 9 - 29.97 30.01 10 CLR 6-hr Min Temp (7am): 32.0°F
6-hr Max Temp (7am): 44.1°F
2018-01-20 05:53 32 17 25 53 160° 8 - 29.96 30.00 10 CLR None
2018-01-20 04:53 33 19 27 55 170° 7 - 29.96 30.00 10 CLR None
2018-01-20 03:53 35 22 30 58 180° 6 - 29.97 30.01 10 CLR None
2018-01-20 01:53 43 21 38 41 230° 8 - 29.97 30.01 10 CLR None
2018-01-20 00:53 43 20 39 39 230° 7 - 29.98 30.01 10 CLR 6-hr Min Temp (1am): 39.9°F
6-hr Max Temp (1am): 46.0°F
2018-01-19 23:53 42 20 39 40 240° 5 - 30.00 30.04 10 CLR 24-hr Min Temp (12am): 27.0°F
24-hr Max Temp (12am): 46.9°F
2018-01-19 22:53 41 21 - 44 - Calm - 30.01 30.05 10 CLR None
2018-01-19 21:53 42 21 40 42 Variable 3 - 30.02 30.06 10 CLR None
2018-01-19 20:53 44 21 42 39 260° 5 - 30.03 30.07 10 CLR None
2018-01-19 19:53 44 20 40 37 240° 7 - 30.03 30.07 10 CLR None
2018-01-19 18:53 42 20 38 40 190° 7 - 30.02 30.07 10 CLR 6-hr Min Temp (7pm): 41.0°F
6-hr Max Temp (7pm): 46.9°F
2018-01-19 17:53 45 17 43 32 240° 5 - 30.01 30.06 10 CLR None
2018-01-19 16:53 46 17 43 30 230° 6 - 30.01 30.05 10 CLR None
2018-01-19 15:53 47 17 44 29 220° 6 - 30.00 30.04 10 CLR None
2018-01-19 14:53 47 16 40 28 240° 8 18 30.00 30.04 10 CLR None
2018-01-19 13:53 46 16 41 29 250° 9 - 30.02 30.06 10 CLR None
2018-01-19 12:53 44 15 39 30 250° 10 - 30.04 30.09 10 CLR 6-hr Min Temp (1pm): 28.0°F
6-hr Max Temp (1pm): 44.1°F
2018-01-19 11:53 40 14 33 34 240° 10 - 30.07 30.12 10 CLR None
2018-01-19 10:53 38 14 28 36 250° 9 18 30.10 30.15 10 CLR None

Support USWX by starting your Amazon purchase here.